createdAt,value
2023-04-16T00:02:03.882Z,100379.44
2023-04-16T00:04:31.508Z,100373.78
2023-04-16T00:06:58.615Z,100376.97
2023-04-16T00:09:25.675Z,100381.91
2023-04-16T00:11:52.785Z,100378.88
2023-04-16T00:14:19.885Z,100377.91
2023-04-16T00:16:47.094Z,100379.50
2023-04-16T00:19:14.238Z,100377.69
2023-04-16T00:21:41.315Z,100386.53
2023-04-16T00:24:08.460Z,100377.31
2023-04-16T00:26:35.554Z,100380.88
2023-04-16T00:29:02.672Z,100378.09
2023-04-16T00:31:30.787Z,100374.28
2023-04-16T00:33:58.120Z,100382.78
2023-04-16T00:36:25.681Z,100379.28
2023-04-16T00:38:53.061Z,100382.66
2023-04-16T00:41:20.163Z,100386.50
2023-04-16T00:43:47.276Z,100389.97
2023-04-16T00:46:15.948Z,100389.66
2023-04-16T00:48:44.130Z,100385.47
2023-04-16T00:51:11.590Z,100389.19
2023-04-16T00:53:38.853Z,100388.53
2023-04-16T00:56:06.858Z,100387.75
2023-04-16T00:58:35.026Z,100387.09
2023-04-16T01:01:02.394Z,100382.94
2023-04-16T01:03:35.001Z,100379.06
2023-04-16T01:06:02.522Z,100377.47
2023-04-16T01:08:29.704Z,100384.50
2023-04-16T01:10:56.841Z,100388.09
2023-04-16T01:13:23.905Z,100387.81
2023-04-16T01:15:51.499Z,100381.78
2023-04-16T01:18:20.122Z,100388.34
2023-04-16T01:20:50.246Z,100387.75
2023-04-16T01:23:20.724Z,100388.97
2023-04-16T01:25:47.923Z,100388.06
2023-04-16T01:28:15.202Z,100387.25
2023-04-16T01:30:43.073Z,100382.38
2023-04-16T01:33:19.081Z,100383.16
2023-04-16T01:35:46.248Z,100384.94
2023-04-16T01:38:15.940Z,100387.34
2023-04-16T01:40:43.015Z,100388.81
2023-04-16T01:43:10.402Z,100393.75
2023-04-16T01:45:37.595Z,100394.72
2023-04-16T01:48:04.807Z,100386.91
2023-04-16T01:50:32.014Z,100393.84
2023-04-16T01:52:59.050Z,100397.66
2023-04-16T01:55:26.889Z,100397.81
2023-04-16T01:57:53.986Z,100391.75
2023-04-16T02:00:25.566Z,100387.25
2023-04-16T02:02:53.733Z,100391.06
2023-04-16T02:05:26.575Z,100388.84
2023-04-16T02:07:53.615Z,100404.09
2023-04-16T02:10:20.775Z,100409.66
2023-04-16T02:12:48.043Z,100412.88
2023-04-16T02:15:16.334Z,100409.22
2023-04-16T02:17:43.611Z,100404.13
2023-04-16T02:20:11.374Z,100407.47
2023-04-16T02:22:52.222Z,100402.63
2023-04-16T02:25:22.332Z,100403.09
2023-04-16T02:27:50.181Z,100401.91
2023-04-16T02:30:33.882Z,100394.59
2023-04-16T02:33:03.722Z,100405.06
2023-04-16T02:35:34.706Z,100400.09
2023-04-16T02:38:02.330Z,100402.47
2023-04-16T02:40:29.909Z,100406.66
2023-04-16T02:42:57.258Z,100406.81
2023-04-16T02:45:25.012Z,100403.59
2023-04-16T02:47:52.223Z,100417.69
2023-04-16T02:50:19.310Z,100413.06
2023-04-16T02:52:46.457Z,100421.56
2023-04-16T02:55:13.627Z,100416.13
2023-04-16T02:57:42.449Z,100416.44
2023-04-16T03:00:10.080Z,100426.34
2023-04-16T03:02:37.323Z,100418.22
2023-04-16T03:05:04.793Z,100420.78
2023-04-16T03:07:31.955Z,100429.22
2023-04-16T03:09:59.080Z,100440.56
2023-04-16T03:12:26.165Z,100437.69
2023-04-16T03:14:53.281Z,100441.22
2023-04-16T03:17:20.544Z,100439.13
2023-04-16T03:19:47.693Z,100443.31
2023-04-16T03:22:14.835Z,100434.53
2023-04-16T03:24:42.109Z,100432.44
2023-04-16T03:27:09.211Z,100434.84
2023-04-16T03:29:38.526Z,100446.50
2023-04-16T03:32:08.179Z,100449.22
2023-04-16T03:34:36.835Z,100449.88
2023-04-16T03:37:06.168Z,100460.72
2023-04-16T03:39:34.641Z,100459.44
2023-04-16T03:42:02.379Z,100452.25
2023-04-16T03:44:29.717Z,100457.22
2023-04-16T03:46:56.854Z,100459.13
2023-04-16T03:49:24.141Z,100463.28
2023-04-16T03:51:51.861Z,100465.28
2023-04-16T03:54:20.182Z,100468.19
2023-04-16T03:56:54.156Z,100469.63
2023-04-16T03:59:21.264Z,100463.50
2023-04-16T04:01:48.353Z,100467.03
2023-04-16T04:04:15.698Z,100466.56
2023-04-16T04:06:44.807Z,100466.66
2023-04-16T04:09:12.261Z,100474.00
2023-04-16T04:11:39.381Z,100476.91
2023-04-16T04:14:06.493Z,100474.66
2023-04-16T04:16:34.458Z,100475.97
2023-04-16T04:19:01.758Z,100478.97
2023-04-16T04:21:29.183Z,100478.50
2023-04-16T04:23:56.362Z,100481.81
2023-04-16T04:26:23.853Z,100482.22
2023-04-16T04:28:51.237Z,100477.94
2023-04-16T04:31:19.077Z,100477.31
2023-04-16T04:33:46.384Z,100480.72
2023-04-16T04:36:13.560Z,100486.81
2023-04-16T04:38:40.588Z,100499.59
2023-04-16T04:41:07.654Z,100498.31
2023-04-16T04:43:37.392Z,100507.06
2023-04-16T04:46:04.737Z,100504.41
2023-04-16T04:48:32.519Z,100506.06
2023-04-16T04:51:00.159Z,100512.25
2023-04-16T04:53:27.228Z,100512.22
2023-04-16T04:55:57.495Z,100513.19
2023-04-16T04:58:33.181Z,100507.75
2023-04-16T05:01:00.362Z,100515.28
2023-04-16T05:03:27.513Z,100513.25
2023-04-16T05:05:54.578Z,100515.63
2023-04-16T05:08:21.753Z,100518.34
2023-04-16T05:10:48.872Z,100524.63
2023-04-16T05:13:16.010Z,100530.53
2023-04-16T05:15:43.198Z,100536.16
2023-04-16T05:18:10.316Z,100540.25
2023-04-16T05:20:37.998Z,100534.03
2023-04-16T05:23:05.082Z,100544.59
2023-04-16T05:25:32.164Z,100546.22
2023-04-16T05:27:59.271Z,100550.19
2023-04-16T05:30:26.358Z,100556.63
2023-04-16T05:32:53.382Z,100551.81
2023-04-16T05:35:20.425Z,100550.56
2023-04-16T05:37:47.529Z,100562.06
2023-04-16T05:40:14.693Z,100561.78
2023-04-16T05:42:41.808Z,100568.47
2023-04-16T05:45:09.150Z,100570.25
2023-04-16T05:47:36.350Z,100577.28
2023-04-16T05:50:03.482Z,100582.22
2023-04-16T05:52:30.634Z,100587.34
2023-04-16T05:55:01.420Z,100594.50
2023-04-16T05:57:29.241Z,100600.38
2023-04-16T05:59:56.352Z,100605.53
2023-04-16T06:02:23.546Z,100599.91
2023-04-16T06:04:50.812Z,100592.97
2023-04-16T06:07:17.950Z,100598.16
2023-04-16T06:09:45.028Z,100598.16
2023-04-16T06:12:12.135Z,100604.84
2023-04-16T06:14:39.199Z,100598.41
2023-04-16T06:17:06.250Z,100603.50
2023-04-16T06:19:33.277Z,100597.28
2023-04-16T06:22:00.429Z,100599.06
2023-04-16T06:24:27.565Z,100603.28
2023-04-16T06:26:54.721Z,100604.84
2023-04-16T06:29:27.933Z,100601.69
2023-04-16T06:32:00.803Z,100599.72
2023-04-16T06:34:28.220Z,100604.84
2023-04-16T06:36:55.452Z,100602.34
2023-04-16T06:39:22.514Z,100598.84
2023-04-16T06:41:49.625Z,100601.69
2023-04-16T06:44:18.075Z,100610.09
2023-04-16T06:46:45.272Z,100601.44
2023-04-16T06:49:12.446Z,100602.06
2023-04-16T06:51:39.527Z,100606.66
2023-04-16T06:54:06.687Z,100608.22
2023-04-16T06:56:33.882Z,100613.13
2023-04-16T06:59:00.984Z,100604.25
2023-04-16T07:01:28.482Z,100606.63
2023-04-16T07:03:55.876Z,100603.19
2023-04-16T07:06:23.092Z,100599.41
2023-04-16T07:08:50.175Z,100608.22
2023-04-16T07:11:19.035Z,100607.56
2023-04-16T07:13:46.406Z,100612.84
2023-04-16T07:16:13.931Z,100610.25
2023-04-16T07:18:41.184Z,100608.97
2023-04-16T07:21:08.277Z,100611.34
2023-04-16T07:23:35.407Z,100609.31
2023-04-16T07:26:02.473Z,100607.50
2023-04-16T07:28:29.522Z,100604.59
2023-04-16T07:30:56.740Z,100601.63
2023-04-16T07:33:24.249Z,100602.69
2023-04-16T07:35:51.569Z,100609.22
2023-04-16T07:38:18.661Z,100603.88
2023-04-16T07:40:46.037Z,100603.00
2023-04-16T07:43:13.965Z,100604.63
2023-04-16T07:45:41.558Z,100604.81
2023-04-16T07:48:08.711Z,100609.59
2023-04-16T07:50:36.403Z,100611.25
2023-04-16T07:53:03.712Z,100614.09
2023-04-16T07:55:30.731Z,100622.00
2023-04-16T07:57:57.820Z,100622.16
2023-04-16T08:00:24.894Z,100624.59
2023-04-16T08:02:52.318Z,100625.84
2023-04-16T08:05:19.652Z,100632.81
2023-04-16T08:07:47.047Z,100623.56
2023-04-16T08:10:14.116Z,100631.84
2023-04-16T08:12:41.400Z,100625.84
2023-04-16T08:15:08.709Z,100625.00
2023-04-16T08:17:37.562Z,100623.91
2023-04-16T08:20:05.209Z,100613.03
2023-04-16T08:22:32.817Z,100629.66
2023-04-16T08:24:59.962Z,100625.47
2023-04-16T08:27:27.062Z,100623.53
2023-04-16T08:29:54.135Z,100631.84
2023-04-16T08:32:21.351Z,100628.44
2023-04-16T08:34:48.593Z,100626.88
2023-04-16T08:37:15.749Z,100628.84
2023-04-16T08:39:42.868Z,100630.84
2023-04-16T08:42:14.169Z,100625.31
2023-04-16T08:44:43.713Z,100631.56
2023-04-16T08:47:12.525Z,100629.56
2023-04-16T08:49:43.923Z,100630.75
2023-04-16T08:52:14.736Z,100635.81
2023-04-16T08:55:01.695Z,100635.00
2023-04-16T08:57:30.858Z,100631.84
2023-04-16T08:59:58.229Z,100637.69
2023-04-16T09:02:26.336Z,100629.84
2023-04-16T09:04:55.489Z,100626.22
2023-04-16T09:07:24.001Z,100628.88
2023-04-16T09:09:52.118Z,100633.78
2023-04-16T09:12:19.293Z,100633.41
2023-04-16T09:14:49.438Z,100635.66
2023-04-16T09:17:16.931Z,100636.34
2023-04-16T09:19:44.542Z,100626.88
2023-04-16T09:22:12.040Z,100640.00
2023-04-16T09:24:39.231Z,100635.81
2023-04-16T09:27:07.729Z,100622.94
2023-04-16T09:29:38.329Z,100643.22
2023-04-16T09:32:06.594Z,100652.00
2023-04-16T09:34:34.437Z,100642.69
2023-04-16T09:37:14.313Z,100638.28
2023-04-16T09:39:42.283Z,100638.69
2023-04-16T09:42:09.549Z,100638.28
2023-04-16T09:44:37.638Z,100633.06
2023-04-16T09:47:08.454Z,100633.78
2023-04-16T09:49:40.740Z,100634.38
2023-04-16T09:52:17.861Z,100638.78
2023-04-16T09:54:48.597Z,100631.94
2023-04-16T09:57:20.722Z,100634.47
2023-04-16T09:59:48.372Z,100635.91
2023-04-16T10:02:16.540Z,100624.25
2023-04-16T10:04:47.982Z,100632.69
2023-04-16T10:07:15.306Z,100628.56
2023-04-16T10:09:42.732Z,100620.56
2023-04-16T10:12:10.616Z,100618.78
2023-04-16T10:14:37.640Z,100617.44
2023-04-16T10:17:06.260Z,100628.72
2023-04-16T10:19:33.825Z,100624.22
2023-04-16T10:22:01.561Z,100626.03
2023-04-16T10:24:29.863Z,100625.59
2023-04-16T10:26:57.094Z,100624.69
2023-04-16T10:29:25.376Z,100620.78
2023-04-16T10:31:53.121Z,100621.13
2023-04-16T10:34:21.289Z,100626.09
2023-04-16T10:36:49.636Z,100617.56
2023-04-16T10:39:18.424Z,100614.56
2023-04-16T10:41:45.642Z,100618.94
2023-04-16T10:44:12.913Z,100621.44
2023-04-16T10:46:41.471Z,100619.91
2023-04-16T10:49:15.807Z,100616.94
2023-04-16T10:51:43.035Z,100604.47
2023-04-16T10:54:12.562Z,100604.91
2023-04-16T10:56:40.281Z,100603.63
2023-04-16T10:59:07.929Z,100603.72
2023-04-16T11:01:42.404Z,100611.47
2023-04-16T11:04:22.072Z,100609.03
2023-04-16T11:07:18.735Z,100614.38
2023-04-16T11:09:55.090Z,100598.19
2023-04-16T11:12:23.776Z,100605.78
2023-04-16T11:14:55.155Z,100597.88
2023-04-16T11:17:22.428Z,100594.06
2023-04-16T11:19:50.627Z,100587.63
2023-04-16T11:22:20.841Z,100587.09
2023-04-16T11:24:47.998Z,100595.06
2023-04-16T11:27:16.105Z,100599.13
2023-04-16T11:29:45.061Z,100591.34
2023-04-16T11:32:20.671Z,100591.06
2023-04-16T11:34:47.794Z,100586.44
2023-04-16T11:37:14.904Z,100583.16
2023-04-16T11:39:48.706Z,100584.56
2023-04-16T11:42:19.521Z,100582.88
2023-04-16T11:44:46.646Z,100573.97
2023-04-16T11:47:13.794Z,100582.34
2023-04-16T11:49:41.058Z,100581.03
2023-04-16T11:52:08.200Z,100586.63
2023-04-16T11:54:36.677Z,100575.25
2023-04-16T11:57:04.982Z,100578.91
2023-04-16T11:59:33.248Z,100577.75
2023-04-16T12:02:00.492Z,100573.88
2023-04-16T12:04:27.914Z,100574.69
2023-04-16T12:07:24.407Z,100577.13
2023-04-16T12:09:51.465Z,100571.88
2023-04-16T12:12:25.828Z,100573.22
2023-04-16T12:14:53.192Z,100568.13
2023-04-16T12:17:20.747Z,100559.09
2023-04-16T12:19:48.536Z,100556.09
2023-04-16T12:22:15.954Z,100558.38
2023-04-16T12:24:42.998Z,100552.78
2023-04-16T12:27:10.181Z,100559.97
2023-04-16T12:29:38.763Z,100549.63
2023-04-16T12:32:20.672Z,100543.56
2023-04-16T12:34:51.639Z,100544.13
2023-04-16T12:37:18.669Z,100550.06
2023-04-16T12:39:47.930Z,100551.91
2023-04-16T12:42:15.296Z,100548.22
2023-04-16T12:44:42.339Z,100548.22
2023-04-16T12:47:09.520Z,100547.00
2023-04-16T12:49:37.351Z,100547.94
2023-04-16T12:52:04.536Z,100535.66
2023-04-16T12:54:32.049Z,100545.75
2023-04-16T12:56:59.101Z,100537.66
2023-04-16T12:59:26.168Z,100532.69
2023-04-16T13:01:53.355Z,100543.44
2023-04-16T13:04:21.153Z,100542.13
2023-04-16T13:06:49.740Z,100536.50
2023-04-16T13:09:18.044Z,100540.59
2023-04-16T13:11:45.055Z,100536.34
2023-04-16T13:14:12.268Z,100534.31
2023-04-16T13:16:39.292Z,100531.41
2023-04-16T13:19:06.435Z,100528.91
2023-04-16T13:21:33.718Z,100522.19
2023-04-16T13:24:00.908Z,100524.47
2023-04-16T13:26:28.093Z,100526.13
2023-04-16T13:28:55.205Z,100519.56
2023-04-16T13:31:22.552Z,100520.66
2023-04-16T13:33:50.265Z,100519.16
2023-04-16T13:36:17.417Z,100521.72
2023-04-16T13:38:44.520Z,100526.13
2023-04-16T13:41:11.650Z,100522.53
2023-04-16T13:43:38.737Z,100521.31
2023-04-16T13:46:06.008Z,100514.13
2023-04-16T13:48:33.236Z,100519.63
2023-04-16T13:51:00.448Z,100513.97
2023-04-16T13:53:27.547Z,100522.75
2023-04-16T13:55:54.669Z,100521.50
2023-04-16T13:58:21.867Z,100525.94
2023-04-16T14:00:49.043Z,100534.38
2023-04-16T14:03:16.400Z,100535.19
2023-04-16T14:05:43.576Z,100532.44
2023-04-16T14:08:11.008Z,100534.78
2023-04-16T14:10:38.143Z,100531.97
2023-04-16T14:13:05.283Z,100535.59
2023-04-16T14:15:32.441Z,100541.50
2023-04-16T14:17:59.595Z,100538.63
2023-04-16T14:20:26.687Z,100541.78
2023-04-16T14:22:53.819Z,100535.47
2023-04-16T14:25:20.973Z,100531.88
2023-04-16T14:27:48.077Z,100531.06
2023-04-16T14:30:15.399Z,100542.84
2023-04-16T14:32:42.644Z,100543.59
2023-04-16T14:35:10.260Z,100538.72
2023-04-16T14:37:38.367Z,100533.16
2023-04-16T14:40:08.678Z,100538.28
2023-04-16T14:42:39.493Z,100540.78
2023-04-16T14:45:06.981Z,100551.38
2023-04-16T14:47:34.798Z,100550.97
2023-04-16T14:50:02.505Z,100546.19
2023-04-16T14:52:31.245Z,100540.22
2023-04-16T14:54:58.446Z,100535.47
2023-04-16T14:57:25.776Z,100541.81
2023-04-16T14:59:52.876Z,100540.25
2023-04-16T15:02:20.109Z,100540.88
2023-04-16T15:04:47.262Z,100547.59
2023-04-16T15:07:14.345Z,100553.28
2023-04-16T15:09:41.436Z,100554.19
2023-04-16T15:12:09.190Z,100551.31
2023-04-16T15:14:36.333Z,100548.72
2023-04-16T15:17:03.557Z,100552.28
2023-04-16T15:19:30.951Z,100560.81
2023-04-16T15:21:58.151Z,100557.97
2023-04-16T15:24:25.458Z,100561.81
2023-04-16T15:26:52.524Z,100560.19
2023-04-16T15:29:19.536Z,100563.03
2023-04-16T15:31:47.500Z,100552.84
2023-04-16T15:34:14.706Z,100560.75
2023-04-16T15:36:41.919Z,100555.66
2023-04-16T15:39:09.791Z,100556.88
2023-04-16T15:41:47.206Z,100561.59
2023-04-16T15:44:26.652Z,100563.72
2023-04-16T15:46:53.694Z,100566.28
2023-04-16T15:49:20.892Z,100576.69
2023-04-16T15:51:48.055Z,100571.19
2023-04-16T15:54:15.089Z,100581.94
2023-04-16T15:56:42.175Z,100582.75
2023-04-16T15:59:09.573Z,100570.28
2023-04-16T16:01:39.669Z,100583.59
2023-04-16T16:04:07.448Z,100583.34
2023-04-16T16:06:35.038Z,100580.84
2023-04-16T16:09:02.170Z,100590.47
2023-04-16T16:11:29.266Z,100586.69
2023-04-16T16:13:56.349Z,100592.19
2023-04-16T16:16:23.505Z,100587.53
2023-04-16T16:18:50.644Z,100585.72
2023-04-16T16:21:17.662Z,100589.94
2023-04-16T16:23:44.777Z,100598.72
2023-04-16T16:26:12.311Z,100598.06
2023-04-16T16:28:39.505Z,100593.41
2023-04-16T16:31:07.227Z,100589.66
2023-04-16T16:33:34.416Z,100593.94
2023-04-16T16:36:01.444Z,100595.97
2023-04-16T16:38:28.638Z,100601.28
2023-04-16T16:40:55.680Z,100596.56
2023-04-16T16:43:23.071Z,100607.41
2023-04-16T16:45:50.109Z,100614.22
2023-04-16T16:48:17.280Z,100616.06
2023-04-16T16:50:44.449Z,100611.81
2023-04-16T16:53:11.621Z,100614.38
2023-04-16T16:55:38.783Z,100614.56
2023-04-16T16:58:06.232Z,100629.44
2023-04-16T17:00:33.383Z,100634.25
2023-04-16T17:03:00.828Z,100642.91
2023-04-16T17:05:28.121Z,100643.00
2023-04-16T17:07:55.200Z,100645.25
2023-04-16T17:10:22.456Z,100657.00
2023-04-16T17:12:49.854Z,100655.59
2023-04-16T17:15:19.156Z,100657.38
2023-04-16T17:17:47.820Z,100658.78
2023-04-16T17:20:15.688Z,100667.78
2023-04-16T17:22:43.020Z,100670.41
2023-04-16T17:25:10.298Z,100673.81
2023-04-16T17:27:37.409Z,100672.03
2023-04-16T17:30:05.761Z,100679.84
2023-04-16T17:32:33.002Z,100687.88
2023-04-16T17:35:01.144Z,100692.56
2023-04-16T17:37:28.640Z,100689.38
2023-04-16T17:39:56.001Z,100701.16
2023-04-16T17:42:26.289Z,100706.66
2023-04-16T17:44:53.457Z,100707.97
2023-04-16T17:47:20.914Z,100713.47
2023-04-16T17:49:48.062Z,100710.00
2023-04-16T17:52:15.247Z,100705.66
2023-04-16T17:54:42.295Z,100716.53
2023-04-16T17:57:09.314Z,100723.38
2023-04-16T17:59:36.336Z,100721.59
2023-04-16T18:02:03.675Z,100724.84
2023-04-16T18:04:31.241Z,100731.03
2023-04-16T18:06:58.376Z,100736.34
2023-04-16T18:09:26.156Z,100735.13
2023-04-16T18:11:53.706Z,100736.50
2023-04-16T18:14:21.478Z,100742.16
2023-04-16T18:16:49.179Z,100738.34
2023-04-16T18:19:16.599Z,100746.88
2023-04-16T18:21:43.706Z,100742.19
2023-04-16T18:24:11.256Z,100741.50
2023-04-16T18:26:40.810Z,100745.19
2023-04-16T18:29:09.124Z,100744.50
2023-04-16T18:31:36.427Z,100748.16
2023-04-16T18:34:03.610Z,100755.84
2023-04-16T18:36:31.174Z,100756.78
2023-04-16T18:39:02.105Z,100756.22
2023-04-16T18:41:30.765Z,100751.88
2023-04-16T18:43:58.021Z,100759.88
2023-04-16T18:46:25.469Z,100760.00
2023-04-16T18:48:52.684Z,100767.53
2023-04-16T18:51:19.733Z,100771.06
2023-04-16T18:53:46.852Z,100775.97
2023-04-16T18:56:13.887Z,100769.94
2023-04-16T18:58:40.961Z,100773.13
2023-04-16T19:01:11.301Z,100776.56
2023-04-16T19:03:38.846Z,100779.06
2023-04-16T19:06:06.346Z,100775.59
2023-04-16T19:08:33.621Z,100782.16
2023-04-16T19:11:00.844Z,100778.38
2023-04-16T19:13:30.260Z,100785.56
2023-04-16T19:15:59.427Z,100786.03
2023-04-16T19:18:26.766Z,100795.03
2023-04-16T19:21:00.597Z,100797.13
2023-04-16T19:23:27.916Z,100797.66
2023-04-16T19:25:56.767Z,100801.19
2023-04-16T19:28:24.144Z,100796.97
2023-04-16T19:30:51.529Z,100801.78
2023-04-16T19:33:19.005Z,100804.28
2023-04-16T19:35:46.353Z,100801.31
2023-04-16T19:38:13.458Z,100802.56
2023-04-16T19:40:41.109Z,100798.38
2023-04-16T19:43:08.442Z,100815.69
2023-04-16T19:45:35.605Z,100804.72
2023-04-16T19:48:02.748Z,100808.72
2023-04-16T19:50:30.013Z,100815.56
2023-04-16T19:52:57.145Z,100814.66
2023-04-16T19:55:24.228Z,100807.25
2023-04-16T19:57:51.303Z,100819.09
2023-04-16T20:00:18.483Z,100802.44
2023-04-16T20:02:45.955Z,100813.63
2023-04-16T20:05:13.094Z,100815.91
2023-04-16T20:07:40.211Z,100819.66
2023-04-16T20:10:07.496Z,100816.81
2023-04-16T20:12:34.541Z,100803.25
2023-04-16T20:15:01.619Z,100814.88
2023-04-16T20:17:28.978Z,100806.66
2023-04-16T20:20:00.817Z,100803.00
2023-04-16T20:22:28.005Z,100811.19
2023-04-16T20:24:55.156Z,100809.47
2023-04-16T20:27:22.266Z,100813.28
2023-04-16T20:29:49.360Z,100814.28
2023-04-16T20:32:16.734Z,100810.28
2023-04-16T20:34:43.834Z,100808.81
2023-04-16T20:37:10.890Z,100809.63
2023-04-16T20:39:40.011Z,100812.91
2023-04-16T20:42:10.180Z,100811.84
2023-04-16T20:44:40.645Z,100825.53
2023-04-16T20:47:08.580Z,100821.16
2023-04-16T20:49:35.722Z,100821.34
2023-04-16T20:52:02.781Z,100814.66
2023-04-16T20:54:30.058Z,100816.38
2023-04-16T20:56:57.493Z,100810.38
2023-04-16T20:59:24.832Z,100810.44
2023-04-16T21:01:55.115Z,100813.06
2023-04-16T21:04:22.423Z,100816.19
2023-04-16T21:06:53.361Z,100810.22
2023-04-16T21:09:20.821Z,100815.63
2023-04-16T21:11:48.044Z,100808.22
2023-04-16T21:14:15.431Z,100812.50
2023-04-16T21:16:42.572Z,100813.66
2023-04-16T21:19:09.995Z,100814.44
2023-04-16T21:21:38.301Z,100813.31
2023-04-16T21:24:05.554Z,100815.06
2023-04-16T21:26:32.608Z,100812.19
2023-04-16T21:28:59.794Z,100803.88
2023-04-16T21:31:27.320Z,100813.25
2023-04-16T21:33:54.428Z,100810.81
2023-04-16T21:36:21.498Z,100820.06
2023-04-16T21:38:48.690Z,100815.09
2023-04-16T21:41:16.546Z,100817.34
2023-04-16T21:43:43.602Z,100821.19
2023-04-16T21:46:10.859Z,100810.63
2023-04-16T21:48:37.966Z,100807.41
2023-04-16T21:51:08.249Z,100820.72
2023-04-16T21:53:36.854Z,100815.63
2023-04-16T21:56:03.998Z,100815.81
2023-04-16T21:58:31.070Z,100809.91
2023-04-16T22:00:58.123Z,100812.84
2023-04-16T22:03:26.670Z,100818.25
2023-04-16T22:05:57.928Z,100811.69
2023-04-16T22:08:27.118Z,100807.22
2023-04-16T22:10:58.820Z,100808.50
2023-04-16T22:13:26.280Z,100803.50
2023-04-16T22:15:54.589Z,100809.75
2023-04-16T22:18:24.267Z,100805.09
2023-04-16T22:20:54.661Z,100799.66
2023-04-16T22:23:22.193Z,100802.84
2023-04-16T22:25:49.362Z,100800.38
2023-04-16T22:28:16.467Z,100796.69
2023-04-16T22:30:43.517Z,100795.56
2023-04-16T22:33:11.236Z,100799.44
2023-04-16T22:35:38.391Z,100800.78
2023-04-16T22:38:05.680Z,100796.69
2023-04-16T22:40:32.784Z,100799.56
2023-04-16T22:42:59.862Z,100802.19
2023-04-16T22:45:27.338Z,100799.84
2023-04-16T22:47:54.495Z,100810.91
2023-04-16T22:50:23.180Z,100811.88
2023-04-16T22:52:50.644Z,100804.31
2023-04-16T22:55:17.778Z,100800.00
2023-04-16T22:57:44.899Z,100796.34
2023-04-16T23:00:16.024Z,100789.44
2023-04-16T23:02:44.991Z,100788.00
2023-04-16T23:05:12.267Z,100784.78
2023-04-16T23:07:39.448Z,100790.75
2023-04-16T23:10:08.355Z,100785.59
2023-04-16T23:12:38.876Z,100789.66
2023-04-16T23:15:06.645Z,100783.72
2023-04-16T23:17:34.975Z,100781.06
2023-04-16T23:20:02.401Z,100783.91
2023-04-16T23:22:29.576Z,100791.28
2023-04-16T23:24:56.962Z,100787.75
2023-04-16T23:27:24.062Z,100793.69
2023-04-16T23:29:51.090Z,100787.94
2023-04-16T23:32:18.183Z,100783.59
2023-04-16T23:34:45.565Z,100783.63
2023-04-16T23:37:12.680Z,100788.97
2023-04-16T23:39:39.979Z,100785.28
2023-04-16T23:42:07.205Z,100786.03
2023-04-16T23:44:34.238Z,100779.78
2023-04-16T23:47:01.409Z,100775.63
2023-04-16T23:49:28.584Z,100779.53
2023-04-16T23:51:55.731Z,100773.78
2023-04-16T23:54:22.847Z,100777.94
2023-04-16T23:56:49.943Z,100767.19
2023-04-16T23:59:17.089Z,100771.34
